Port Bolivar, Texas
Current Conditions -  °F | °C
As of 5:52 AM on Thursday 23 Oct 2014 (Local Time) from KGLS Reporting Station
Clear Clear  
Wind Chill: 66°   Ceiling: Unl
Heat Index: 66°   Visibility: 10mi
Dew Point: 61°   Wind: 9mph
Humidity: 84%   Direction: 30°NNE
Pressure: 30.06"   Gusts: NA
Location:  29.38°N, 94.77°W
Report Text: KGLS 231052Z 03008KT 10SM CLR 19/16 A3006 RMK AO2 SLP180 T01890161
Loading
Personal Weather Stations






























Interactive Weather Map
Tropical Storm Tracking
New forecast layout! Learn more

10-Day Weather Forecast

Advertisements
Track Severe Weather on mobile